Clear Sky Current Weather (METAR) For Bournemouth Airport

All times on the weather descriptions are local

Observed at 01:20 - (9 mins ago)

Clear Sky

2°C

Clear Sky
Clouds:
Wind: 270° at 07 knots
Visibility: Greater than 10km
QNH: 1014
Dew Point: 0°C
Runway in Use: Runway 26

Sunrise Today: 05:44
Sunset Today: 20:25

Forecast Weather (TAF) For Bournemouth Airport

Issued at 01:00 - (1 day 23 hrs ago)


Runway in Use: Unable to determine, wind is clam

Forecast valid until 01:00 on Thursday

METAR/TAF RAW METAR / TAF

EGHH 280020Z 27007KT CAVOK 02/00 Q1014

Weather Widget

Put weather from any of our airports on your website with our weather widget.

Find Another Search

Airport Search


Please Wait Please Wait - Loading
Close
Close

Login

Username:

Password:

Remember Me:

Remember me on this computer

Forgotten your password? Get a reset password sent to your registered e-mail address

Close

User Private Message

Subject:

Message: